메인 페이지
METAR-TAF:

METAR-TAF

공항 :

주노, 알래스카, 미국

위도: 58-21-17N, 경도: 134-34-34W, 고도: 6m

현재 날씨관측

예보는 15분 전, 20:53시(UTC)에 발표되었습니다.
동남동24kt, 순간 최대 풍속 31kt
온도 6°C
습도 93%
기압 1001 hPa
시정: 9.7km
고도 1900ft 상공 구름 보통
고도 3100ft 상공 구름 많음
고도 4300ft 상공 흐림
약한비, 박무

METAR: PAJN 192053Z 12024G31KT 6SM -RA BR SCT019 BKN031 OVC043 06/05 A2956 RMK AO2 PK WND 11038/2027 SLP010 P0002 60007 T00610050 53005

시각: 13:08 (21:08 UTC)

예보

예보는 57분 전, 20:11시(UTC)에 발표되었습니다.
예보 대상 시간: 19일 20시부터 20일 18시까지 (UTC)
남동25kt, 순간 최대 풍속 35kt
시정: 9.7km
고도 3500ft 상공 구름 많음
고도 4000ft 상공 흐림
약한비, 박무
20일 0300시부터 (UTC)
남동18kt, 순간 최대 풍속 28kt
시정: 9.7km
고도 2500ft 상공 구름 보통
고도 3500ft 상공 흐림
약한소나기, 박무
20일 1200시부터 (UTC)
12kt
시정: 10km
고도 2500ft 상공 흐림
약한소나기

TAF: PAJN 192011Z 1920/2018 13025G35KT 6SM -RA BR BKN035 OVC040 FM200300 13018G28KT 6SM -SHRA BR SCT025 OVC035 FM201200 10012KT P6SM -SHRA OVC025

4,000개 이상의 공항 관측 자료 및 예보 (METAR 및 TAF 보고).

지도상에서 검색 가능한 기상관측소가 노란 점과 빨간 점으로 표시되어 있습니다.

기상관측소 명을 보려면 표시 위로 마우스를 이동하세요.

날씨 관측과 예보를 보려면 클릭하세요.

지도 변경 : 확대하려면 엑스 표시가 있는 녹색 버튼, 축소하려면 빼기 표시가 있는 녹색 버튼, 다음 페이지의 지도를 보려면 녹색 화살표를 클릭하세요.


METAR-TAF: